createdAt,value
2022-12-09T00:01:20.070Z,12.60
2022-12-09T00:03:48.695Z,11.37
2022-12-09T00:06:25.146Z,11.47
2022-12-09T00:08:53.782Z,12.00
2022-12-09T00:11:22.504Z,10.57
2022-12-09T00:13:58.873Z,9.60
2022-12-09T00:16:26.711Z,10.13
2022-12-09T00:18:54.795Z,12.30
2022-12-09T00:21:29.762Z,13.70
2022-12-09T00:23:59.293Z,11.83
2022-12-09T00:26:28.925Z,10.20
2022-12-09T00:28:57.220Z,9.50
2022-12-09T00:31:32.796Z,9.83
2022-12-09T00:34:03.468Z,10.20
2022-12-09T00:36:31.386Z,10.30
2022-12-09T00:39:01.456Z,11.80
2022-12-09T00:41:30.142Z,11.20
2022-12-09T00:43:58.951Z,11.70
2022-12-09T00:46:26.994Z,9.83
2022-12-09T00:48:55.295Z,11.97
2022-12-09T00:51:26.621Z,10.00
2022-12-09T00:53:56.245Z,9.33
2022-12-09T00:56:28.289Z,9.37
2022-12-09T00:58:58.024Z,8.90
2022-12-09T01:01:27.630Z,9.23
2022-12-09T01:03:55.753Z,8.77
2022-12-09T01:06:25.671Z,7.63
2022-12-09T01:08:53.631Z,8.10
2022-12-09T01:11:28.005Z,8.17
2022-12-09T01:14:01.540Z,8.37
2022-12-09T01:16:32.319Z,7.90
2022-12-09T01:19:05.247Z,8.57
2022-12-09T01:21:34.237Z,8.00
2022-12-09T01:24:06.291Z,8.00
2022-12-09T01:26:34.445Z,7.90
2022-12-09T01:29:02.006Z,9.13
2022-12-09T01:31:29.595Z,7.93
2022-12-09T01:33:58.168Z,8.20
2022-12-09T01:36:29.786Z,8.00
2022-12-09T01:39:00.012Z,7.57
2022-12-09T01:41:29.693Z,7.57
2022-12-09T01:44:21.924Z,7.87
2022-12-09T01:46:50.926Z,8.00
2022-12-09T01:49:23.978Z,7.23
2022-12-09T01:52:13.607Z,7.37
2022-12-09T01:54:43.863Z,8.17
2022-12-09T01:57:12.002Z,6.23
2022-12-09T01:59:41.028Z,6.00
2022-12-09T02:02:12.150Z,6.27
2022-12-09T02:04:42.670Z,8.50
2022-12-09T02:07:11.693Z,9.13
2022-12-09T02:09:40.785Z,12.67
2022-12-09T02:12:24.408Z,14.43
2022-12-09T02:15:04.681Z,16.33
2022-12-09T02:17:51.472Z,17.20
2022-12-09T02:20:36.022Z,17.63
2022-12-09T02:23:10.453Z,18.40
2022-12-09T02:25:49.867Z,16.30
2022-12-09T02:28:37.243Z,16.50
2022-12-09T02:31:37.986Z,18.50
2022-12-09T02:34:21.060Z,21.00
2022-12-09T02:37:04.981Z,21.37
2022-12-09T02:39:55.190Z,21.67
2022-12-09T02:42:31.299Z,19.30
2022-12-09T02:45:04.423Z,19.37
2022-12-09T02:47:36.699Z,17.90
2022-12-09T02:50:09.362Z,17.60
2022-12-09T02:52:39.537Z,16.93
2022-12-09T02:55:10.264Z,15.93
2022-12-09T02:57:40.039Z,16.53
2022-12-09T03:00:15.026Z,14.80
2022-12-09T03:02:49.925Z,14.07
2022-12-09T03:05:29.390Z,14.10
2022-12-09T03:08:15.794Z,15.40
2022-12-09T03:11:01.214Z,14.20
2022-12-09T03:13:52.439Z,14.70
2022-12-09T03:16:43.561Z,14.53
2022-12-09T03:19:44.157Z,14.67
2022-12-09T03:22:17.338Z,14.30
2022-12-09T03:25:00.589Z,15.00
2022-12-09T03:27:39.116Z,15.13
2022-12-09T03:30:10.379Z,14.73
2022-12-09T03:32:40.620Z,14.30
2022-12-09T03:35:13.399Z,14.40
2022-12-09T03:37:44.193Z,13.97
2022-12-09T03:40:17.165Z,14.17
2022-12-09T03:42:51.376Z,14.53
2022-12-09T03:45:21.007Z,14.40
2022-12-09T03:47:49.649Z,14.00
2022-12-09T03:50:18.678Z,14.23
2022-12-09T03:52:52.972Z,14.07
2022-12-09T03:55:40.313Z,14.07
2022-12-09T03:58:10.623Z,13.80
2022-12-09T04:00:39.991Z,13.80
2022-12-09T04:03:07.890Z,14.40
2022-12-09T04:05:35.776Z,13.30
2022-12-09T04:08:03.845Z,14.73
2022-12-09T04:10:31.860Z,13.07
2022-12-09T04:12:59.547Z,14.07
2022-12-09T04:15:28.710Z,14.47
2022-12-09T04:17:56.559Z,13.97
2022-12-09T04:20:25.015Z,15.53
2022-12-09T04:22:52.911Z,14.87
2022-12-09T04:25:20.649Z,14.13
2022-12-09T04:27:49.979Z,15.07
2022-12-09T04:30:17.823Z,13.80
2022-12-09T04:32:46.014Z,15.07
2022-12-09T04:35:15.172Z,14.07
2022-12-09T04:37:43.257Z,13.77
2022-12-09T04:40:15.472Z,14.27
2022-12-09T04:42:46.832Z,14.43
2022-12-09T04:45:16.140Z,13.93
2022-12-09T04:47:45.086Z,14.47
2022-12-09T04:50:13.812Z,13.53
2022-12-09T04:52:42.444Z,13.60
2022-12-09T04:55:10.247Z,14.37
2022-12-09T04:57:38.593Z,13.53
2022-12-09T05:00:07.578Z,15.07
2022-12-09T05:02:37.532Z,14.50
2022-12-09T05:05:05.935Z,15.03
2022-12-09T05:07:33.824Z,14.63
2022-12-09T05:10:02.272Z,13.73
2022-12-09T05:12:30.241Z,14.53
2022-12-09T05:14:59.014Z,14.80
2022-12-09T05:17:27.546Z,15.00
2022-12-09T05:19:56.474Z,14.90
2022-12-09T05:22:24.070Z,14.93
2022-12-09T05:24:52.005Z,14.57
2022-12-09T05:27:21.232Z,15.20
2022-12-09T05:29:48.830Z,15.07
2022-12-09T05:32:16.727Z,15.03
2022-12-09T05:34:44.886Z,14.83
2022-12-09T05:37:17.752Z,14.87
2022-12-09T05:39:47.032Z,15.30
2022-12-09T05:42:14.483Z,14.87
2022-12-09T05:44:42.377Z,15.47
2022-12-09T05:47:10.006Z,15.20
2022-12-09T05:49:39.287Z,15.17
2022-12-09T05:52:07.375Z,14.87
2022-12-09T05:54:36.296Z,14.57
2022-12-09T05:57:04.461Z,15.90
2022-12-09T05:59:32.303Z,15.73
2022-12-09T06:02:06.466Z,15.47
2022-12-09T06:04:37.748Z,15.20
2022-12-09T06:07:05.493Z,15.93
2022-12-09T06:09:34.486Z,14.80
2022-12-09T06:12:03.030Z,15.70
2022-12-09T06:14:31.389Z,16.10
2022-12-09T06:16:59.535Z,15.67
2022-12-09T06:19:28.955Z,16.60
2022-12-09T06:21:56.611Z,16.13
2022-12-09T06:24:24.060Z,15.13
2022-12-09T06:26:56.284Z,16.10
2022-12-09T06:29:24.631Z,15.47
2022-12-09T06:31:53.692Z,14.87
2022-12-09T06:34:22.363Z,15.30
2022-12-09T06:36:50.372Z,14.57
2022-12-09T06:39:19.594Z,15.80
2022-12-09T06:41:49.255Z,15.90
2022-12-09T06:44:23.310Z,17.93
2022-12-09T06:46:52.367Z,17.70
2022-12-09T06:49:20.727Z,18.23
2022-12-09T06:51:48.693Z,18.20
2022-12-09T06:54:16.659Z,17.90
2022-12-09T06:56:44.229Z,18.50
2022-12-09T06:59:13.159Z,18.13
2022-12-09T07:01:41.014Z,16.67
2022-12-09T07:04:10.776Z,16.07
2022-12-09T07:06:44.507Z,16.37
2022-12-09T07:09:18.867Z,18.13
2022-12-09T07:11:47.279Z,17.37
2022-12-09T07:14:16.776Z,17.60
2022-12-09T07:16:45.323Z,17.13
2022-12-09T07:19:22.220Z,16.30
2022-12-09T07:21:52.334Z,16.00
2022-12-09T07:24:21.264Z,18.20
2022-12-09T07:26:52.059Z,17.13
2022-12-09T07:29:20.765Z,17.33
2022-12-09T07:31:48.872Z,17.23
2022-12-09T07:34:17.600Z,16.80
2022-12-09T07:36:46.181Z,16.70
2022-12-09T07:39:28.096Z,17.27
2022-12-09T07:41:58.362Z,17.30
2022-12-09T07:44:31.077Z,19.23
2022-12-09T07:46:59.274Z,20.03
2022-12-09T07:49:27.444Z,26.10
2022-12-09T07:51:55.449Z,25.40
2022-12-09T07:54:24.532Z,21.60
2022-12-09T07:56:55.329Z,18.33
2022-12-09T07:59:23.598Z,18.13
2022-12-09T08:01:52.298Z,18.63
2022-12-09T08:04:20.094Z,18.03
2022-12-09T08:06:48.158Z,18.87
2022-12-09T08:09:19.303Z,19.17
2022-12-09T08:11:47.728Z,18.63
2022-12-09T08:14:15.612Z,19.50
2022-12-09T08:16:44.199Z,19.33
2022-12-09T08:19:13.586Z,18.43
2022-12-09T08:21:41.725Z,17.83
2022-12-09T08:24:11.245Z,19.10
2022-12-09T08:26:40.308Z,19.57
2022-12-09T08:29:10.058Z,19.70
2022-12-09T08:31:41.646Z,21.53
2022-12-09T08:34:10.897Z,22.63
2022-12-09T08:36:39.279Z,22.37
2022-12-09T08:39:08.519Z,22.67
2022-12-09T08:41:39.070Z,20.93
2022-12-09T08:44:13.601Z,22.00
2022-12-09T08:46:43.748Z,23.13
2022-12-09T08:49:12.620Z,23.03
2022-12-09T08:51:40.524Z,22.37
2022-12-09T08:54:08.417Z,21.87
2022-12-09T08:56:36.776Z,24.70
2022-12-09T08:59:04.922Z,26.07
2022-12-09T09:01:35.438Z,24.13
2022-12-09T09:04:09.601Z,23.63
2022-12-09T09:06:39.642Z,23.37
2022-12-09T09:09:09.065Z,24.27
2022-12-09T09:11:37.494Z,24.60
2022-12-09T09:14:08.509Z,23.57
2022-12-09T09:16:39.779Z,23.33
2022-12-09T09:19:08.884Z,24.27
2022-12-09T09:21:37.165Z,23.97
2022-12-09T09:24:12.888Z,23.00
2022-12-09T09:26:42.545Z,21.63
2022-12-09T09:29:15.167Z,21.27
2022-12-09T09:31:44.109Z,20.67
2022-12-09T09:34:12.558Z,20.00
2022-12-09T09:36:41.399Z,19.40
2022-12-09T09:39:09.774Z,22.33
2022-12-09T09:42:22.814Z,21.20
2022-12-09T09:44:54.976Z,18.77
2022-12-09T09:47:44.077Z,25.53
2022-12-09T09:50:33.666Z,18.97
2022-12-09T09:53:12.142Z,17.47
2022-12-09T09:56:06.737Z,49.67
2022-12-09T09:59:00.573Z,28.07
2022-12-09T10:01:34.785Z,20.23
2022-12-09T10:04:03.102Z,31.43
2022-12-09T10:07:07.955Z,25.40
2022-12-09T10:09:52.746Z,22.40
2022-12-09T10:12:37.992Z,19.17
2022-12-09T10:15:13.577Z,20.47
2022-12-09T10:17:55.590Z,20.53
2022-12-09T10:20:30.592Z,21.77
2022-12-09T10:23:12.144Z,18.93
2022-12-09T10:25:48.932Z,17.37
2022-12-09T10:28:24.135Z,16.20
2022-12-09T10:30:55.626Z,16.73
2022-12-09T10:33:32.453Z,14.87
2022-12-09T10:36:00.264Z,14.80
2022-12-09T10:38:30.946Z,14.87
2022-12-09T10:41:10.417Z,15.07
2022-12-09T10:43:40.261Z,12.70
2022-12-09T10:46:19.524Z,12.00
2022-12-09T10:48:49.280Z,12.40
2022-12-09T10:51:24.050Z,12.00
2022-12-09T10:54:04.990Z,11.17
2022-12-09T10:56:38.034Z,10.87
2022-12-09T10:59:31.726Z,10.53
2022-12-09T11:02:08.940Z,11.60
2022-12-09T11:04:44.262Z,9.60
2022-12-09T11:07:18.246Z,11.13
2022-12-09T11:09:56.412Z,10.97
2022-12-09T11:12:30.980Z,12.07
2022-12-09T11:15:04.469Z,21.13
2022-12-09T11:17:36.019Z,30.00
2022-12-09T11:20:07.793Z,29.23
2022-12-09T11:22:41.469Z,30.07
2022-12-09T11:25:12.913Z,12.57
2022-12-09T11:27:55.279Z,15.57
2022-12-09T11:30:27.038Z,21.73
2022-12-09T11:33:02.415Z,15.83
2022-12-09T11:35:45.876Z,17.23
2022-12-09T11:38:37.473Z,22.57
2022-12-09T11:41:43.285Z,17.83
2022-12-09T11:44:35.293Z,14.87
2022-12-09T11:47:05.298Z,15.20
2022-12-09T11:49:36.796Z,14.17
2022-12-09T11:52:23.005Z,8.67
2022-12-09T11:55:18.758Z,9.53
2022-12-09T11:57:53.629Z,8.00
2022-12-09T12:00:24.261Z,7.40
2022-12-09T12:03:07.003Z,7.77
2022-12-09T12:05:47.582Z,7.37
2022-12-09T12:08:27.188Z,7.50
2022-12-09T12:11:18.901Z,7.97
2022-12-09T12:13:54.601Z,7.87
2022-12-09T12:16:49.001Z,7.57
2022-12-09T12:19:35.607Z,7.47
2022-12-09T12:22:24.134Z,7.10
2022-12-09T12:25:13.984Z,6.30
2022-12-09T12:27:55.981Z,7.20
2022-12-09T12:30:52.333Z,6.20
2022-12-09T12:34:22.930Z,6.23
2022-12-09T12:37:15.679Z,7.07
2022-12-09T12:40:07.941Z,7.27
2022-12-09T12:43:09.228Z,7.93
2022-12-09T12:46:09.689Z,7.60
2022-12-09T12:49:15.010Z,7.33
2022-12-09T12:52:47.285Z,7.87
2022-12-09T12:55:17.345Z,8.00
2022-12-09T12:58:09.592Z,7.90
2022-12-09T13:01:15.324Z,8.17
2022-12-09T13:03:53.587Z,7.20
2022-12-09T13:06:35.917Z,8.23
2022-12-09T13:09:12.679Z,8.03
2022-12-09T13:12:16.204Z,7.90
2022-12-09T13:14:54.285Z,7.37
2022-12-09T13:17:26.846Z,8.27
2022-12-09T13:19:58.998Z,7.50
2022-12-09T13:22:39.803Z,6.97
2022-12-09T13:25:57.351Z,6.90
2022-12-09T13:28:39.735Z,5.33
2022-12-09T13:31:10.098Z,5.47
2022-12-09T13:33:57.330Z,5.53
2022-12-09T13:36:45.850Z,4.80
2022-12-09T13:39:42.308Z,4.13
2022-12-09T13:42:47.544Z,4.60
2022-12-09T13:45:25.887Z,5.80
2022-12-09T13:47:54.459Z,4.47
2022-12-09T13:50:35.116Z,4.83
2022-12-09T13:53:19.479Z,4.53
2022-12-09T13:56:02.172Z,5.13
2022-12-09T13:58:54.458Z,7.33
2022-12-09T14:01:49.650Z,6.83
2022-12-09T14:04:19.955Z,5.50
2022-12-09T14:06:47.569Z,9.23
2022-12-09T14:09:33.317Z,10.37
2022-12-09T14:12:05.026Z,9.90
2022-12-09T14:14:32.562Z,11.07
2022-12-09T14:17:02.598Z,8.43
2022-12-09T14:19:48.856Z,6.03
2022-12-09T14:22:23.043Z,3.67
2022-12-09T14:24:53.212Z,5.30
2022-12-09T14:27:27.283Z,3.50
2022-12-09T14:30:32.923Z,3.77
2022-12-09T14:33:02.669Z,4.87
2022-12-09T14:35:44.811Z,3.93
2022-12-09T14:38:23.657Z,3.47
2022-12-09T14:41:18.048Z,4.03
2022-12-09T14:43:57.704Z,4.03
2022-12-09T14:46:35.578Z,3.60
2022-12-09T14:49:23.184Z,5.43
2022-12-09T14:51:56.828Z,4.57
2022-12-09T14:54:35.292Z,4.73
2022-12-09T14:57:15.960Z,5.17
2022-12-09T14:59:54.130Z,13.23
2022-12-09T15:05:17.261Z,8.27
2022-12-09T15:07:46.332Z,7.83
2022-12-09T15:10:38.444Z,16.63
2022-12-09T15:13:06.328Z,146.50
2022-12-09T15:15:37.145Z,23.73
2022-12-09T15:18:17.112Z,11.80
2022-12-09T15:20:50.242Z,8.03
2022-12-09T15:23:35.009Z,8.37
2022-12-09T15:26:20.930Z,5.77
2022-12-09T15:28:51.430Z,6.53
2022-12-09T15:31:22.215Z,7.10
2022-12-09T15:33:52.064Z,9.20
2022-12-09T15:36:37.830Z,10.20
2022-12-09T15:39:07.689Z,9.37
2022-12-09T15:41:59.816Z,7.27
2022-12-09T15:44:29.673Z,8.00
2022-12-09T15:46:59.004Z,8.03
2022-12-09T15:49:33.362Z,7.27
2022-12-09T15:52:03.168Z,6.57
2022-12-09T15:54:37.608Z,7.60
2022-12-09T15:57:07.783Z,7.80
2022-12-09T15:59:55.634Z,7.77
2022-12-09T16:02:28.264Z,8.60
2022-12-09T16:05:01.306Z,9.00
2022-12-09T16:07:33.143Z,9.77
2022-12-09T16:10:12.679Z,12.77
2022-12-09T16:12:42.170Z,30.97
2022-12-09T16:15:12.909Z,13.97
2022-12-09T16:17:55.569Z,16.30
2022-12-09T16:20:35.179Z,18.80
2022-12-09T16:23:05.897Z,12.40
2022-12-09T16:25:42.019Z,12.37
2022-12-09T16:28:25.373Z,14.97
2022-12-09T16:31:00.305Z,22.07
2022-12-09T16:33:30.862Z,26.43
2022-12-09T16:36:04.616Z,35.40
2022-12-09T16:38:36.299Z,49.17
2022-12-09T16:41:07.536Z,77.80
2022-12-09T16:43:36.388Z,67.40
2022-12-09T16:46:12.892Z,76.07
2022-12-09T16:48:41.427Z,70.67
2022-12-09T16:51:15.290Z,41.73
2022-12-09T16:53:48.275Z,32.83
2022-12-09T16:56:21.485Z,36.80
2022-12-09T16:58:49.391Z,32.53
2022-12-09T17:01:18.658Z,38.07
2022-12-09T17:03:54.638Z,28.43
2022-12-09T17:06:22.118Z,18.07
2022-12-09T17:08:50.353Z,19.90
2022-12-09T17:11:19.029Z,27.63
2022-12-09T17:13:48.367Z,21.33
2022-12-09T17:16:17.244Z,23.43
2022-12-09T17:18:45.123Z,18.43
2022-12-09T17:21:14.188Z,20.27
2022-12-09T17:23:42.361Z,18.17
2022-12-09T17:26:13.596Z,17.23
2022-12-09T17:28:42.319Z,15.80
2022-12-09T17:31:15.812Z,17.87
2022-12-09T17:33:46.724Z,15.93
2022-12-09T17:36:22.148Z,15.83
2022-12-09T17:38:49.995Z,17.73
2022-12-09T17:41:20.828Z,18.67
2022-12-09T17:43:48.591Z,17.20
2022-12-09T17:46:16.902Z,17.43
2022-12-09T17:48:44.929Z,15.50
2022-12-09T17:51:15.071Z,16.20
2022-12-09T17:53:45.895Z,15.07
2022-12-09T17:56:15.783Z,15.43
2022-12-09T17:58:44.044Z,15.13
2022-12-09T18:01:18.238Z,14.37
2022-12-09T18:04:07.879Z,14.47
2022-12-09T18:06:35.016Z,13.07
2022-12-09T18:09:09.030Z,14.87
2022-12-09T18:11:36.916Z,14.03
2022-12-09T18:14:05.431Z,13.87
2022-12-09T18:16:33.951Z,15.30
2022-12-09T18:19:11.521Z,12.30
2022-12-09T18:21:39.379Z,12.97
2022-12-09T18:24:07.327Z,18.93
2022-12-09T18:26:41.332Z,14.60
2022-12-09T18:29:11.125Z,13.70
2022-12-09T18:31:39.848Z,13.33
2022-12-09T18:34:07.819Z,12.63
2022-12-09T18:36:35.911Z,12.43
2022-12-09T18:39:04.654Z,12.33
2022-12-09T18:41:33.696Z,11.30
2022-12-09T18:44:04.593Z,11.97
2022-12-09T18:46:36.500Z,13.33
2022-12-09T18:49:08.027Z,13.50
2022-12-09T18:51:36.436Z,13.80
2022-12-09T18:54:06.073Z,14.40
2022-12-09T18:56:35.274Z,16.93
2022-12-09T18:59:08.015Z,19.37
2022-12-09T19:01:40.354Z,20.10
2022-12-09T19:04:20.483Z,19.03
2022-12-09T19:06:50.449Z,19.13
2022-12-09T19:09:32.241Z,19.70
2022-12-09T19:12:22.898Z,17.30
2022-12-09T19:14:49.394Z,17.47
2022-12-09T19:17:21.450Z,18.10
2022-12-09T19:19:50.162Z,18.63
2022-12-09T19:22:17.913Z,19.87
2022-12-09T19:24:45.324Z,21.20
2022-12-09T19:27:14.401Z,20.47
2022-12-09T19:29:42.016Z,21.37
2022-12-09T19:32:29.518Z,22.17
2022-12-09T19:34:57.037Z,21.40
2022-12-09T19:37:24.340Z,21.37
2022-12-09T19:39:52.701Z,18.00
2022-12-09T19:42:20.390Z,16.73
2022-12-09T19:45:01.449Z,15.80
2022-12-09T19:47:31.906Z,15.80
2022-12-09T19:49:59.218Z,16.47
2022-12-09T19:52:26.931Z,15.50
2022-12-09T19:54:55.291Z,15.37
2022-12-09T19:57:23.601Z,14.67
2022-12-09T19:59:51.352Z,14.20
2022-12-09T20:02:18.933Z,13.97
2022-12-09T20:04:49.103Z,14.43
2022-12-09T20:07:18.286Z,13.67
2022-12-09T20:09:46.010Z,14.20
2022-12-09T20:12:13.494Z,14.30
2022-12-09T20:14:41.002Z,14.77
2022-12-09T20:17:08.330Z,15.20
2022-12-09T20:19:37.142Z,15.60
2022-12-09T20:22:04.972Z,15.00
2022-12-09T20:24:32.321Z,13.93
2022-12-09T20:27:00.860Z,14.27
2022-12-09T20:29:32.437Z,13.60
2022-12-09T20:32:03.233Z,13.87
2022-12-09T20:34:30.632Z,12.83
2022-12-09T20:36:58.906Z,13.47
2022-12-09T20:39:26.717Z,11.17
2022-12-09T20:41:54.410Z,11.43
2022-12-09T20:44:22.171Z,11.47
2022-12-09T20:46:51.579Z,11.03
2022-12-09T20:49:22.266Z,10.87
2022-12-09T20:51:49.957Z,10.50
2022-12-09T20:54:17.771Z,10.23
2022-12-09T20:56:45.569Z,8.93
2022-12-09T20:59:13.846Z,8.00
2022-12-09T21:01:43.746Z,8.27
2022-12-09T21:04:11.437Z,8.93
2022-12-09T21:06:40.723Z,11.60
2022-12-09T21:09:11.785Z,10.73
2022-12-09T21:11:39.712Z,8.30
2022-12-09T21:14:07.622Z,8.10
2022-12-09T21:16:39.598Z,6.97
2022-12-09T21:19:12.049Z,11.10
2022-12-09T21:21:40.892Z,8.00
2022-12-09T21:24:11.945Z,10.33
2022-12-09T21:26:40.771Z,6.67
2022-12-09T21:29:09.892Z,5.30
2022-12-09T21:31:40.050Z,4.23
2022-12-09T21:34:12.390Z,4.50
2022-12-09T21:36:42.882Z,3.73
2022-12-09T21:39:14.943Z,5.70
2022-12-09T21:41:43.411Z,3.60
2022-12-09T21:44:17.154Z,4.03
2022-12-09T21:46:45.584Z,7.67
2022-12-09T21:49:15.012Z,5.53
2022-12-09T21:51:43.886Z,3.70
2022-12-09T21:54:11.336Z,5.10
2022-12-09T21:56:38.718Z,6.23
2022-12-09T21:59:07.843Z,6.60
2022-12-09T22:01:41.440Z,7.70
2022-12-09T22:04:12.485Z,4.73
2022-12-09T22:06:41.143Z,5.37
2022-12-09T22:09:09.130Z,3.43
2022-12-09T22:11:37.975Z,4.97
2022-12-09T22:14:07.597Z,5.50
2022-12-09T22:16:39.970Z,4.60
2022-12-09T22:19:08.639Z,3.90
2022-12-09T22:21:36.818Z,3.80
2022-12-09T22:24:07.404Z,3.80
2022-12-09T22:26:35.111Z,5.00
2022-12-09T22:29:05.081Z,4.70
2022-12-09T22:31:36.533Z,4.00
2022-12-09T22:34:07.711Z,5.77
2022-12-09T22:36:36.986Z,5.77
2022-12-09T22:39:07.355Z,4.83
2022-12-09T22:41:36.172Z,4.73
2022-12-09T22:44:04.639Z,6.27
2022-12-09T22:46:33.976Z,6.00
2022-12-09T22:49:05.104Z,5.07
2022-12-09T22:51:36.877Z,4.90
2022-12-09T22:54:08.627Z,5.10
2022-12-09T22:56:39.650Z,5.53
2022-12-09T22:59:07.492Z,6.07
2022-12-09T23:01:37.628Z,5.47
2022-12-09T23:04:07.480Z,5.80
2022-12-09T23:06:37.532Z,5.43
2022-12-09T23:09:08.118Z,5.17
2022-12-09T23:11:37.413Z,6.00
2022-12-09T23:14:04.982Z,4.83
2022-12-09T23:16:32.784Z,4.63
2022-12-09T23:19:00.786Z,5.40
2022-12-09T23:21:32.698Z,5.53
2022-12-09T23:24:02.613Z,5.97
2022-12-09T23:26:33.588Z,6.40
2022-12-09T23:29:01.854Z,6.43
2022-12-09T23:31:33.879Z,6.60
2022-12-09T23:34:03.700Z,6.90
2022-12-09T23:36:34.364Z,7.17
2022-12-09T23:39:03.735Z,5.87
2022-12-09T23:41:31.526Z,6.73
2022-12-09T23:44:00.682Z,6.27
2022-12-09T23:46:30.847Z,6.67
2022-12-09T23:48:59.017Z,6.10
2022-12-09T23:51:29.589Z,6.13
2022-12-09T23:54:04.187Z,5.90
2022-12-09T23:56:35.138Z,6.27
2022-12-09T23:59:05.934Z,6.63
